This is the latest recevied weather packets stored in our database for station/object W4NDF-13. If no packets are shown the sender has not sent any weather packets the latest 10 day(s).
| Time | Temp. | Humidity | Pressure | Rain* | Wind** | Luminosity | Snow |
|---|---|---|---|---|---|---|---|
| 1778004131 | 27.22° C | 66% | 1014.2 hPa | 0 mm | - | 722 W/m² | - |
| 1778003826 | 26.67° C | 66% | 1014.4 hPa | 0 mm | - | 744 W/m² | - |
| 1778003523 | 27.22° C | 67% | 1014.2 hPa | 0 mm | - | 673 W/m² | - |
| 1778003219 | 27.22° C | 65% | 1014.3 hPa | 0 mm | - | 851 W/m² | - |
| 1778002916 | 26.67° C | 67% | 1014.3 hPa | 0 mm | - | 825 W/m² | - |
| 1778002613 | 26.67° C | 65% | 1014.4 hPa | 0 mm | - | 775 W/m² | - |
| 1778002310 | 27.22° C | 65% | 1014.3 hPa | 0 mm | - | 784 W/m² | - |
| 1778002007 | 27.22° C | 65% | 1014.4 hPa | 0 mm | - | 761 W/m² | - |
| 1778001704 | 26.67° C | 66% | 1014.5 hPa | 0 mm | - | 792 W/m² | - |
| 1778001403 | 27.22° C | 65% | 1014.5 hPa | 0 mm | - | 772 W/m² | - |
| 1778001101 | 26.67° C | 65% | 1014.6 hPa | 0 mm | - | 812 W/m² | - |
| 1778000798 | 26.67° C | 65% | 1014.4 hPa | 0 mm | - | 658 W/m² | - |
| 1778000494 | 26.67° C | 66% | 1014.4 hPa | 0 mm | - | 791 W/m² | - |
| 1778000189 | 26.67° C | 65% | 1014.5 hPa | 0 mm | - | 781 W/m² | - |
| 1777999886 | 26.11° C | 68% | 1014.4 hPa | 0 mm | - | 791 W/m² | - |
| 1777999581 | 26.67° C | 66% | 1014.3 hPa | 0 mm | - | 735 W/m² | - |
| 1777999279 | 26.11° C | 67% | 1014.4 hPa | 0 mm | - | 750 W/m² | - |
| 1777998977 | 25.56° C | 68% | 1014.5 hPa | 0 mm | - | 716 W/m² | - |
| 1777998674 | 25.56° C | 67% | 1014.4 hPa | 0 mm | - | 485 W/m² | - |
| 1777998372 | 26.11° C | 67% | 1014.4 hPa | 0 mm | - | 439 W/m² | - |
| 1777998069 | 26.11° C | 67% | 1014.5 hPa | 0 mm | - | 722 W/m² | - |
| 1777997766 | 26.11° C | 66% | 1014.2 hPa | 0 mm | - | 771 W/m² | - |
| 1777997463 | 25.56° C | 68% | 1014.3 hPa | 0 mm | - | 706 W/m² | - |
| 1777997161 | 25.56° C | 68% | 1014.3 hPa | 0 mm | - | 665 W/m² | - |
| 1777996858 | 26.11° C | 66% | 1014.4 hPa | 0 mm | - | 701 W/m² | - |
* Rain latest hour (hover to see other rain measurements)
** Current wind speed in m/s (hover to see current wind gust speed)